Time;durP1;ratioP1;P1;durP2;ratioP2;P2;SDS_P1;SDS_P2;PMS_P1;PMS_P2;Temp;Humidity;BMP_temperature;BMP_pressure;BME280_temperature;BME280_humidity;BME280_pressure;Samples;Min_cycle;Max_cycle;Signal;HPM_P1;HPM_P2
2022/02/13 00:00:55;;;;;;;5.70;2.85;;;11.00;55.20;;;;;;5011638;28;20038;-76
2022/02/13 00:03:21;;;;;;;6.95;2.90;;;11.00;55.30;;;;;;5012182;28;20133;-73
2022/02/13 00:05:47;;;;;;;6.78;3.03;;;10.90;55.60;;;;;;5012349;28;20445;-75
2022/02/13 00:08:13;;;;;;;6.45;3.00;;;11.00;55.40;;;;;;5012511;28;20042;-76
2022/02/13 00:10:39;;;;;;;5.80;2.47;;;10.90;55.20;;;;;;5012198;28;20119;-76
2022/02/13 00:13:05;;;;;;;5.65;3.10;;;10.90;54.80;;;;;;5012576;28;20048;-75
2022/02/13 00:15:31;;;;;;;6.15;2.50;;;10.90;55.30;;;;;;5012541;28;20038;-75
2022/02/13 00:17:56;;;;;;;5.07;2.83;;;10.90;55.50;;;;;;5011727;28;20086;-75
2022/02/13 00:20:22;;;;;;;6.30;2.65;;;10.90;55.60;;;;;;5012843;28;20052;-74
2022/02/13 00:22:48;;;;;;;4.55;3.08;;;10.90;55.60;;;;;;5012685;28;20456;-74
2022/02/13 00:25:14;;;;;;;9.10;2.95;;;10.90;54.50;;;;;;5013002;28;20042;-77
2022/02/13 00:27:40;;;;;;;4.85;3.03;;;10.90;55.60;;;;;;5013126;28;20330;-75
2022/02/13 00:30:07;;;;;;;7.63;3.03;;;10.90;55.30;;;;;;5011517;28;20110;-74
2022/02/13 00:32:34;;;;;;;6.65;2.97;;;10.90;55.40;;;;;;5011381;28;20435;-74
2022/02/13 00:34:59;;;;;;;9.05;3.40;;;10.90;55.60;;;;;;5012310;28;20110;-77
2022/02/13 00:37:25;;;;;;;6.97;3.40;;;10.90;55.40;;;;;;5011760;28;20050;-73
2022/02/13 00:39:51;;;;;;;6.60;3.22;;;10.90;55.70;;;;;;5012285;28;20053;-75
2022/02/13 00:42:16;;;;;;;5.03;2.70;;;10.90;55.60;;;;;;5012446;28;20041;-74
2022/02/13 00:44:42;;;;;;;5.40;3.15;;;10.90;55.60;;;;;;5011795;28;20049;-75
2022/02/13 00:47:08;;;;;;;6.18;3.42;;;10.90;55.70;;;;;;5012460;28;20124;-75
2022/02/13 00:49:34;;;;;;;7.47;3.53;;;10.90;55.20;;;;;;5011944;28;20355;-75
2022/02/13 00:52:00;;;;;;;5.85;3.15;;;10.90;55.80;;;;;;5011982;28;20053;-74
2022/02/13 00:54:27;;;;;;;6.20;3.25;;;10.90;55.60;;;;;;5024229;28;20061;-74
2022/02/13 00:56:52;;;;;;;7.07;2.92;;;10.90;55.90;;;;;;5013818;28;20124;-75
2022/02/13 00:59:18;;;;;;;5.22;3.35;;;11.00;56.10;;;;;;5033518;28;20129;-73
2022/02/13 01:01:44;;;;;;;7.70;3.22;;;11.00;55.70;;;;;;5035014;28;20197;-74
2022/02/13 01:04:09;;;;;;;8.40;3.50;;;10.90;55.60;;;;;;5034984;28;20162;-75
2022/02/13 01:06:35;;;;;;;6.80;3.13;;;10.90;55.60;;;;;;5017962;28;20046;-73
2022/02/13 01:09:03;;;;;;;7.30;3.25;;;10.90;55.60;;;;;;5017494;28;20049;-72
2022/02/13 01:11:28;;;;;;;8.07;3.58;;;10.90;55.40;;;;;;5035039;28;20045;-74
2022/02/13 01:13:54;;;;;;;5.30;3.05;;;10.90;55.60;;;;;;5034903;28;20128;-74
2022/02/13 01:16:20;;;;;;;6.65;3.47;;;10.80;55.50;;;;;;5018142;28;20053;-75
2022/02/13 01:18:47;;;;;;;6.28;3.30;;;10.80;55.50;;;;;;5035198;28;20042;-75
2022/02/13 01:21:13;;;;;;;12.05;3.70;;;10.80;55.40;;;;;;5034807;28;20041;-76
2022/02/13 01:23:42;;;;;;;7.90;3.55;;;10.80;55.60;;;;;;5034808;28;20049;-74
2022/02/13 01:26:10;;;;;;;6.95;3.28;;;10.70;55.50;;;;;;5034153;28;20374;-74
2022/02/13 01:28:36;;;;;;;5.25;3.30;;;10.70;55.70;;;;;;5017112;28;20053;-73
2022/02/13 01:31:02;;;;;;;6.85;3.45;;;10.70;55.50;;;;;;5017428;28;20053;-75
2022/02/13 01:33:31;;;;;;;6.85;3.08;;;10.70;55.70;;;;;;5016922;28;20107;-74
2022/02/13 01:35:58;;;;;;;6.00;3.40;;;10.70;55.90;;;;;;5017450;28;20053;-74
2022/02/13 01:38:24;;;;;;;5.50;2.88;;;10.80;56.60;;;;;;5034811;28;20052;-74
2022/02/13 01:40:50;;;;;;;8.65;3.67;;;10.90;56.40;;;;;;5034469;28;20093;-74
2022/02/13 01:43:16;;;;;;;8.15;3.40;;;10.80;55.60;;;;;;5017242;28;20464;-74
2022/02/13 01:45:42;;;;;;;11.07;3.50;;;10.70;55.80;;;;;;5016931;28;20046;-76
2022/02/13 01:48:08;;;;;;;9.07;3.58;;;10.70;56.30;;;;;;5034954;28;20041;-74
2022/02/13 01:50:37;;;;;;;6.35;3.45;;;10.70;56.20;;;;;;5034411;28;20437;-74
2022/02/13 01:53:03;;;;;;;8.40;3.78;;;10.60;56.10;;;;;;5017275;28;20449;-74
2022/02/13 01:55:30;;;;;;;7.88;3.72;;;10.60;55.90;;;;;;5016455;28;20109;-74
2022/02/13 01:57:57;;;;;;;5.28;3.47;;;10.50;56.00;;;;;;5034657;28;20382;-77
2022/02/13 02:00:26;;;;;;;9.68;3.45;;;10.50;56.10;;;;;;5034800;28;20345;-73
2022/02/13 02:02:52;;;;;;;7.82;4.28;;;10.60;56.30;;;;;;5016492;28;20041;-73
2022/02/13 02:05:18;;;;;;;8.43;4.05;;;10.50;56.10;;;;;;5034660;28;20068;-74
2022/02/13 02:07:44;;;;;;;4.97;3.80;;;10.50;56.70;;;;;;5034073;28;20445;-73
2022/02/13 02:10:10;;;;;;;5.70;3.80;;;10.50;56.30;;;;;;5032628;28;20050;-74
2022/02/13 02:12:37;;;;;;;8.45;3.95;;;10.50;56.30;;;;;;5033701;28;20110;-74
2022/02/13 02:15:05;;;;;;;6.53;4.07;;;10.50;56.30;;;;;;5016303;28;20120;-75
2022/02/13 02:17:32;;;;;;;8.32;3.65;;;10.50;56.50;;;;;;5016460;28;20037;-75
2022/02/13 02:19:57;;;;;;;6.50;4.20;;;10.50;56.20;;;;;;5034524;28;20046;-74
2022/02/13 02:22:23;;;;;;;6.60;3.30;;;10.50;55.90;;;;;;5016604;28;20412;-75
2022/02/13 02:24:49;;;;;;;6.68;3.90;;;10.50;56.20;;;;;;5033622;28;20049;-75
2022/02/13 02:27:15;;;;;;;7.40;4.15;;;10.50;56.30;;;;;;5017097;28;20395;-75
2022/02/13 02:29:40;;;;;;;7.18;4.28;;;10.50;56.50;;;;;;5033977;28;20044;-75
2022/02/13 02:32:11;;;;;;;6.75;3.80;;;10.50;56.30;;;;;;5033864;28;20060;-74
2022/02/13 02:34:41;;;;;;;6.93;3.65;;;10.40;55.90;;;;;;5016442;28;20123;-75
2022/02/13 02:37:08;;;;;;;7.57;4.22;;;10.40;56.40;;;;;;5033390;28;20116;-74
2022/02/13 02:39:34;;;;;;;5.63;4.10;;;10.50;56.80;;;;;;5033564;28;20041;-75
2022/02/13 02:42:00;;;;;;;6.70;3.80;;;10.40;56.70;;;;;;5033312;28;20133;-73
2022/02/13 02:44:26;;;;;;;6.93;4.35;;;10.50;56.80;;;;;;5033277;28;20124;-74
2022/02/13 02:46:51;;;;;;;8.10;4.63;;;10.50;56.80;;;;;;5016074;28;20041;-74
2022/02/13 02:49:17;;;;;;;6.13;3.55;;;10.40;56.30;;;;;;5016367;28;20057;-75
2022/02/13 02:51:43;;;;;;;6.35;3.83;;;10.40;56.30;;;;;;5033426;28;20445;-75
2022/02/13 02:54:09;;;;;;;5.07;3.92;;;10.40;56.50;;;;;;5016043;28;20045;-73
2022/02/13 02:56:35;;;;;;;6.47;4.55;;;10.30;56.80;;;;;;5033572;28;20468;-75
2022/02/13 02:59:00;;;;;;;5.47;3.70;;;10.30;56.20;;;;;;5033115;28;20041;-74
2022/02/13 03:01:26;;;;;;;7.80;4.80;;;10.30;56.80;;;;;;5033737;28;20041;-75
2022/02/13 03:03:52;;;;;;;7.60;4.15;;;10.30;57.10;;;;;;5032784;28;20049;-74
2022/02/13 03:06:18;;;;;;;7.80;4.22;;;10.30;56.90;;;;;;5032988;28;20347;-76
2022/02/13 03:08:43;;;;;;;8.68;4.82;;;10.30;56.90;;;;;;5033139;28;20052;-75
2022/02/13 03:11:09;;;;;;;7.53;3.95;;;10.40;57.00;;;;;;5032850;28;20411;-74
2022/02/13 03:13:36;;;;;;;8.43;4.43;;;10.30;57.00;;;;;;5033056;28;20128;-75
2022/02/13 03:16:02;;;;;;;6.53;4.80;;;10.30;56.50;;;;;;5032995;28;20049;-74
2022/02/13 03:18:30;;;;;;;7.40;4.30;;;10.30;57.00;;;;;;5032639;28;20084;-74
2022/02/13 03:20:58;;;;;;;8.73;4.70;;;10.30;56.70;;;;;;5032924;28;20045;-73
2022/02/13 03:23:25;;;;;;;6.15;4.28;;;10.30;57.00;;;;;;5031259;28;20037;-75
2022/02/13 03:25:51;;;;;;;5.45;4.28;;;10.30;56.80;;;;;;5033235;28;20042;-73
2022/02/13 03:28:16;;;;;;;6.65;4.15;;;10.20;58.00;;;;;;5032781;28;20124;-74
2022/02/13 03:30:43;;;;;;;6.30;4.28;;;10.20;57.10;;;;;;5033042;28;20120;-74
2022/02/13 03:33:09;;;;;;;8.40;4.45;;;10.20;57.20;;;;;;5032362;28;20087;-75
2022/02/13 03:35:35;;;;;;;5.80;4.32;;;10.20;57.10;;;;;;5015033;28;20418;-75
2022/02/13 03:38:03;;;;;;;6.65;4.55;;;10.20;57.30;;;;;;5015498;28;20104;-73
2022/02/13 03:40:28;;;;;;;7.30;4.35;;;10.20;57.50;;;;;;5032638;28;20349;-74
2022/02/13 03:42:55;;;;;;;8.82;4.57;;;10.20;57.10;;;;;;5032382;28;20089;-74
2022/02/13 03:45:21;;;;;;;6.95;4.63;;;10.20;56.70;;;;;;5032469;28;20109;-74
2022/02/13 03:47:47;;;;;;;7.60;4.78;;;10.20;57.30;;;;;;5032384;28;20041;-74
2022/02/13 03:50:13;;;;;;;8.20;5.03;;;10.20;57.30;;;;;;5032761;28;20052;-74
2022/02/13 03:52:38;;;;;;;8.90;5.00;;;10.20;57.30;;;;;;5014791;28;20054;-76
2022/02/13 03:55:06;;;;;;;6.45;4.53;;;10.10;57.30;;;;;;5032637;28;20071;-75
2022/02/13 03:57:32;;;;;;;4.72;4.00;;;10.10;57.10;;;;;;5032294;28;20049;-74
2022/02/13 03:59:59;;;;;;;8.88;5.00;;;10.10;57.10;;;;;;5032327;28;20041;-73
2022/02/13 04:02:24;;;;;;;12.80;4.93;;;10.10;57.60;;;;;;5031855;28;20053;-74
2022/02/13 04:04:51;;;;;;;9.93;4.78;;;10.10;57.30;;;;;;5031899;28;20049;-75
2022/02/13 04:07:17;;;;;;;6.95;4.95;;;10.10;57.20;;;;;;5032670;28;20064;-74
2022/02/13 04:09:43;;;;;;;6.93;4.65;;;10.00;57.20;;;;;;5031876;28;20444;-75
2022/02/13 04:12:09;;;;;;;5.97;4.47;;;10.00;57.30;;;;;;5031933;28;20120;-75
2022/02/13 04:14:35;;;;;;;7.50;4.80;;;10.00;57.30;;;;;;5032489;28;20132;-75
2022/02/13 04:17:01;;;;;;;9.27;5.00;;;10.00;57.40;;;;;;5014937;28;20049;-75
2022/02/13 04:19:27;;;;;;;7.72;4.88;;;10.00;57.20;;;;;;5031895;28;20038;-74
2022/02/13 04:21:52;;;;;;;7.22;4.68;;;10.00;57.60;;;;;;5031823;28;20125;-74
2022/02/13 04:24:18;;;;;;;8.40;5.25;;;10.00;57.80;;;;;;5031705;28;20136;-74
2022/02/13 04:26:45;;;;;;;8.63;4.40;;;10.00;57.50;;;;;;5014710;28;20045;-75
2022/02/13 04:29:11;;;;;;;8.77;4.65;;;10.00;57.70;;;;;;5032047;28;20045;-74
2022/02/13 04:31:37;;;;;;;7.97;4.88;;;10.00;57.50;;;;;;5031606;28;20183;-74
2022/02/13 04:34:07;;;;;;;6.15;4.60;;;10.00;57.60;;;;;;5016203;28;20454;-73
2022/02/13 04:36:34;;;;;;;8.45;5.00;;;10.00;57.60;;;;;;5035284;28;20061;-75
2022/02/13 04:39:00;;;;;;;7.63;4.57;;;10.00;57.80;;;;;;5035704;28;20190;-75
2022/02/13 04:41:26;;;;;;;6.78;5.07;;;10.00;57.80;;;;;;5035677;28;20105;-75
2022/02/13 04:43:51;;;;;;;7.47;4.88;;;10.10;57.50;;;;;;5035440;28;20102;-74
2022/02/13 04:46:17;;;;;;;7.50;5.00;;;10.00;57.90;;;;;;5035342;28;20057;-75
2022/02/13 04:48:43;;;;;;;6.95;4.80;;;10.00;57.50;;;;;;5017691;28;20049;-75
2022/02/13 04:51:09;;;;;;;6.57;4.55;;;10.00;57.90;;;;;;5034786;28;20056;-73
2022/02/13 04:53:35;;;;;;;8.75;4.45;;;10.00;57.80;;;;;;5035196;28;20057;-74
2022/02/13 04:56:00;;;;;;;12.43;5.65;;;10.10;58.10;;;;;;5035122;28;20072;-75
2022/02/13 04:58:26;;;;;;;8.13;5.45;;;10.00;57.90;;;;;;5035053;28;20042;-73
2022/02/13 05:00:52;;;;;;;7.45;4.45;;;10.00;57.80;;;;;;5017611;28;20038;-73
2022/02/13 05:03:17;;;;;;;7.10;4.55;;;10.00;58.00;;;;;;5017518;28;20045;-74
2022/02/13 05:05:43;;;;;;;9.30;4.78;;;10.00;57.90;;;;;;5034503;28;20133;-74
2022/02/13 05:08:09;;;;;;;9.13;4.93;;;10.00;58.00;;;;;;5034707;28;20041;-74
2022/02/13 05:10:34;;;;;;;7.32;4.63;;;10.00;58.00;;;;;;5035233;28;20049;-74
2022/02/13 05:13:00;;;;;;;8.43;4.95;;;10.10;58.00;;;;;;5035294;28;20042;-74
2022/02/13 05:15:26;;;;;;;6.53;4.03;;;10.00;57.60;;;;;;5035070;28;20054;-75
2022/02/13 05:17:52;;;;;;;7.13;4.72;;;10.00;57.60;;;;;;5034930;28;20041;-75
2022/02/13 05:20:18;;;;;;;7.57;4.60;;;10.00;58.00;;;;;;5017569;28;20497;-75
2022/02/13 05:22:44;;;;;;;7.93;4.75;;;9.90;58.00;;;;;;5034760;28;20037;-77
2022/02/13 05:25:10;;;;;;;7.57;4.22;;;10.00;58.00;;;;;;5033951;28;20186;-74
2022/02/13 05:27:35;;;;;;;8.77;4.88;;;9.90;57.50;;;;;;5034733;28;20040;-73
2022/02/13 05:30:01;;;;;;;8.13;4.65;;;9.90;57.70;;;;;;5034909;28;20041;-74
2022/02/13 05:32:28;;;;;;;8.93;4.45;;;10.00;57.70;;;;;;5018114;28;20326;-74
2022/02/13 05:34:54;;;;;;;6.95;4.50;;;9.90;57.60;;;;;;5034341;28;20098;-76
2022/02/13 05:37:19;;;;;;;8.57;4.53;;;9.90;57.80;;;;;;5034165;28;20045;-74
2022/02/13 05:39:45;;;;;;;6.50;4.30;;;9.90;57.80;;;;;;5034400;28;20080;-74
2022/02/13 05:42:11;;;;;;;9.95;4.53;;;10.00;57.80;;;;;;5034437;28;20045;-74
2022/02/13 05:44:38;;;;;;;6.43;4.50;;;10.00;57.30;;;;;;5031541;28;20054;-74
2022/02/13 05:47:04;;;;;;;7.43;4.03;;;9.90;57.50;;;;;;5024557;28;20133;-75
2022/02/13 05:49:29;;;;;;;9.13;4.63;;;9.90;57.50;;;;;;5019503;28;20120;-74
2022/02/13 05:51:55;;;;;;;5.15;4.05;;;9.90;57.30;;;;;;5024195;28;20430;-75
2022/02/13 05:54:21;;;;;;;6.13;3.95;;;9.90;57.50;;;;;;5004866;28;20058;-73
2022/02/13 05:56:47;;;;;;;10.57;4.32;;;9.80;57.10;;;;;;5025055;28;20130;-75
2022/02/13 05:59:12;;;;;;;7.30;4.15;;;9.80;57.30;;;;;;5023763;28;20383;-74
2022/02/13 06:01:38;;;;;;;7.45;4.15;;;9.90;57.60;;;;;;5024005;28;20064;-75
2022/02/13 06:04:05;;;;;;;7.90;4.50;;;9.90;57.50;;;;;;5024404;28;20042;-75
2022/02/13 06:06:30;;;;;;;9.10;4.60;;;9.90;57.20;;;;;;5023435;28;20110;-75
2022/02/13 06:08:56;;;;;;;7.40;3.88;;;9.90;57.50;;;;;;5023157;28;20133;-75
2022/02/13 06:11:22;;;;;;;7.80;4.32;;;9.90;57.60;;;;;;5024750;28;20041;-74
2022/02/13 06:13:47;;;;;;;8.63;4.72;;;9.80;57.50;;;;;;5022838;28;20030;-74
2022/02/13 06:16:13;;;;;;;6.95;3.95;;;9.90;57.50;;;;;;5020166;28;20048;-74
2022/02/13 06:18:39;;;;;;;7.88;4.78;;;9.90;57.70;;;;;;5033509;28;20041;-74
2022/02/13 06:21:04;;;;;;;8.25;4.25;;;10.20;58.60;;;;;;5033454;28;20057;-74
2022/02/13 06:23:31;;;;;;;8.13;4.25;;;10.40;58.90;;;;;;5016663;28;20124;-73
2022/02/13 06:25:57;;;;;;;8.77;5.20;;;10.60;57.90;;;;;;5015624;28;20086;-74
2022/02/13 06:28:24;;;;;;;16.88;5.63;;;10.80;56.90;;;;;;5032630;28;20041;-75
2022/02/13 06:30:50;;;;;;;10.10;5.40;;;10.90;56.00;;;;;;5033596;28;20047;-78
2022/02/13 06:33:16;;;;;;;10.60;5.85;;;10.90;55.20;;;;;;5026638;28;20405;-74
2022/02/13 06:35:41;;;;;;;10.35;5.28;;;11.00;54.80;;;;;;5025944;28;20060;-74
2022/02/13 06:38:14;;;;;;;12.95;5.43;;;11.00;54.80;;;;;;5022388;28;20320;-76
2022/02/13 06:40:41;;;;;;;14.57;5.75;;;11.00;54.40;;;;;;5024009;28;20399;-78
2022/02/13 06:43:07;;;;;;;9.93;4.90;;;11.10;54.50;;;;;;5021235;28;20523;-73
2022/02/13 06:45:37;;;;;;;6.18;4.70;;;11.10;55.20;;;;;;5025240;28;20095;-79
2022/02/13 06:48:03;;;;;;;8.85;5.05;;;11.20;55.80;;;;;;4989411;28;20046;-75
2022/02/13 06:50:30;;;;;;;12.75;6.60;;;11.30;57.20;;;;;;5023777;28;20333;-75
2022/02/13 06:52:56;;;;;;;6.60;4.50;;;11.40;56.10;;;;;;5022659;28;20061;-74
2022/02/13 06:55:22;;;;;;;7.15;4.03;;;11.60;55.10;;;;;;5034202;28;20418;-75
2022/02/13 06:57:52;;;;;;;8.30;3.83;;;11.90;54.90;;;;;;5012302;28;20110;-73
2022/02/13 07:00:18;;;;;;;12.27;4.85;;;12.20;55.00;;;;;;5026540;28;20029;-75
2022/02/13 07:02:45;;;;;;;7.43;3.75;;;12.40;55.10;;;;;;5024413;28;20067;-76
2022/02/13 07:05:11;;;;;;;8.90;4.00;;;12.80;55.30;;;;;;5012448;28;20038;-74
2022/02/13 07:07:38;;;;;;;13.43;3.05;;;13.00;56.20;;;;;;5013675;28;20038;-75
2022/02/13 07:10:09;;;;;;;10.27;2.92;;;13.30;56.50;;;;;;5021777;28;20037;-74
2022/02/13 07:12:35;;;;;;;10.93;3.08;;;13.50;57.10;;;;;;5032320;28;20088;-75
2022/02/13 07:15:02;;;;;;;10.98;2.83;;;13.80;57.20;;;;;;5033497;28;20402;-73
2022/02/13 07:17:27;;;;;;;11.68;3.00;;;14.00;57.40;;;;;;5032412;28;20122;-73
2022/02/13 07:19:53;;;;;;;12.20;3.42;;;14.20;57.10;;;;;;5015160;28;20049;-75
2022/02/13 07:22:19;;;;;;;8.30;2.70;;;14.30;57.20;;;;;;5032854;28;20038;-74
2022/02/13 07:24:45;;;;;;;7.45;2.55;;;14.40;57.40;;;;;;5015720;28;20084;-75
2022/02/13 07:27:10;;;;;;;8.48;2.88;;;14.40;57.50;;;;;;5032451;28;20037;-76
2022/02/13 07:29:37;;;;;;;10.73;2.78;;;14.50;57.80;;;;;;5031171;28;20041;-76
2022/02/13 07:32:04;;;;;;;7.22;3.03;;;14.40;56.60;;;;;;5031210;28;20049;-77
2022/02/13 07:34:30;;;;;;;12.07;2.88;;;14.50;58.10;;;;;;5014322;28;20361;-75
2022/02/13 07:37:01;;;;;;;9.77;2.80;;;14.60;57.70;;;;;;5014704;28;20037;-77
2022/02/13 07:39:35;;;;;;;20.25;3.50;;;14.60;58.00;;;;;;5032356;28;20060;-75
2022/02/13 07:42:02;;;;;;;8.77;2.47;;;14.70;58.30;;;;;;5031952;28;20062;-78
2022/02/13 07:44:29;;;;;;;8.50;2.78;;;14.80;58.30;;;;;;5032016;28;20043;-76
2022/02/13 07:46:55;;;;;;;10.65;2.50;;;14.90;58.00;;;;;;5032302;28;20041;-76
2022/02/13 07:49:21;;;;;;;13.80;2.58;;;15.10;57.90;;;;;;5032281;28;20060;-76
2022/02/13 07:51:47;;;;;;;12.30;2.80;;;15.10;57.80;;;;;;5032511;28;20442;-78
2022/02/13 07:54:14;;;;;;;8.43;2.58;;;15.20;57.80;;;;;;5031803;28;20050;-75
2022/02/13 07:56:41;;;;;;;14.02;3.28;;;15.40;57.50;;;;;;5014885;28;20437;-75
2022/02/13 07:59:06;;;;;;;10.73;2.40;;;15.40;57.70;;;;;;5015334;28;20067;-75
2022/02/13 08:01:35;;;;;;;8.65;2.70;;;15.50;57.90;;;;;;5031541;28;20385;-75
2022/02/13 08:04:04;;;;;;;5.93;2.05;;;15.60;57.80;;;;;;5032173;28;20321;-76
2022/02/13 08:06:30;;;;;;;10.27;2.78;;;15.70;57.20;;;;;;5030878;28;20037;-78
2022/02/13 08:08:56;;;;;;;6.85;2.95;;;15.30;49.00;;;;;;5024780;28;20045;-80
2022/02/13 08:11:22;;;;;;;10.30;2.22;;;14.80;57.30;;;;;;5020056;28;20034;-81
2022/02/13 08:13:48;;;;;;;8.25;2.40;;;15.10;57.20;;;;;;5025187;28;20048;-79
2022/02/13 08:16:14;;;;;;;9.48;2.50;;;15.30;57.40;;;;;;5028393;28;20117;-80
2022/02/13 08:18:41;;;;;;;5.93;2.22;;;15.50;57.10;;;;;;5079847;28;20134;-75
2022/02/13 08:21:07;;;;;;;9.82;2.33;;;15.60;56.50;;;;;;5063231;28;20041;-76
2022/02/13 08:23:34;;;;;;;6.40;2.30;;;15.70;56.20;;;;;;5012194;28;20129;-77
2022/02/13 08:26:00;;;;;;;9.73;2.78;;;15.80;56.10;;;;;;5025206;28;20074;-76
2022/02/13 08:28:26;;;;;;;6.40;2.67;;;15.90;55.90;;;;;;5031901;28;20081;-74
2022/02/13 08:30:52;;;;;;;8.18;2.63;;;15.90;55.70;;;;;;5032108;28;20052;-74
2022/02/13 08:33:18;;;;;;;11.98;2.28;;;16.00;55.40;;;;;;5031708;28;20373;-72
2022/02/13 08:35:43;;;;;;;6.55;2.63;;;16.00;55.40;;;;;;5031952;28;20041;-75
2022/02/13 08:38:09;;;;;;;6.65;2.45;;;16.00;55.60;;;;;;5030896;28;20049;-75
2022/02/13 08:40:36;;;;;;;9.85;2.60;;;16.00;54.80;;;;;;5032061;28;20199;-75
2022/02/13 08:43:02;;;;;;;7.93;3.08;;;15.90;54.40;;;;;;5014293;28;20037;-73
2022/02/13 08:45:29;;;;;;;11.80;3.00;;;15.80;54.10;;;;;;5032010;28;20045;-75
2022/02/13 08:47:56;;;;;;;8.80;3.03;;;15.70;54.00;;;;;;5031501;28;20530;-73
2022/02/13 08:50:22;;;;;;;11.57;3.22;;;15.70;54.70;;;;;;5031646;28;20045;-74
2022/02/13 08:52:48;;;;;;;6.65;2.90;;;15.60;54.10;;;;;;5015080;28;20120;-75
2022/02/13 08:55:14;;;;;;;9.30;3.10;;;15.60;54.30;;;;;;5031344;28;20101;-74
2022/02/13 08:57:42;;;;;;;8.73;2.47;;;15.50;54.30;;;;;;5031531;28;20148;-73
2022/02/13 09:00:09;;;;;;;6.43;2.58;;;15.40;54.50;;;;;;5032179;28;20041;-74
2022/02/13 09:02:35;;;;;;;7.03;2.10;;;15.30;54.50;;;;;;5018342;28;20089;-75
2022/02/13 09:05:02;;;;;;;7.45;2.45;;;15.20;54.60;;;;;;5012171;28;20353;-74
2022/02/13 09:07:28;;;;;;;10.15;3.22;;;15.10;54.60;;;;;;5019006;28;20056;-74
2022/02/13 09:09:54;;;;;;;6.18;2.00;;;15.10;54.80;;;;;;4998313;28;20492;-74
2022/02/13 09:12:21;;;;;;;6.80;2.70;;;15.00;54.80;;;;;;5014744;28;20050;-74
2022/02/13 09:14:48;;;;;;;5.45;2.33;;;14.90;54.80;;;;;;5012886;28;20113;-74
2022/02/13 09:17:14;;;;;;;4.97;2.10;;;14.90;54.90;;;;;;5011492;28;20103;-74
2022/02/13 09:19:39;;;;;;;6.57;2.22;;;14.80;54.90;;;;;;4995222;28;20418;-74
2022/02/13 09:22:05;;;;;;;8.43;2.53;;;14.80;55.00;;;;;;4997067;28;20045;-74
2022/02/13 09:24:31;;;;;;;5.50;2.15;;;14.70;55.80;;;;;;5015039;28;20056;-74
2022/02/13 09:26:56;;;;;;;5.45;2.35;;;14.70;55.30;;;;;;5032572;28;20057;-74
2022/02/13 09:29:22;;;;;;;5.30;2.58;;;14.60;55.30;;;;;;5034604;28;20033;-75
2022/02/13 09:31:48;;;;;;;4.80;2.35;;;14.60;55.50;;;;;;5034504;28;20128;-74
2022/02/13 09:34:18;;;;;;;3.90;2.33;;;14.50;55.50;;;;;;5034802;28;20415;-75
2022/02/13 09:36:45;;;;;;;5.85;2.35;;;14.50;55.70;;;;;;5034557;28;20122;-74
2022/02/13 09:39:11;;;;;;;5.38;2.20;;;14.50;55.60;;;;;;5034867;28;20193;-75
2022/02/13 09:41:39;;;;;;;4.55;2.28;;;14.40;55.60;;;;;;5034476;28;20041;-73
2022/02/13 09:44:04;;;;;;;4.93;2.35;;;14.30;55.60;;;;;;5034464;28;20053;-74
2022/02/13 09:46:30;;;;;;;6.57;3.08;;;14.30;55.80;;;;;;5034202;28;20041;-74
2022/02/13 09:48:56;;;;;;;3.80;2.28;;;14.30;55.80;;;;;;5034625;28;20044;-75
2022/02/13 09:51:22;;;;;;;4.80;2.28;;;14.30;55.90;;;;;;5034093;28;20049;-74
2022/02/13 09:53:48;;;;;;;4.53;2.28;;;14.30;55.80;;;;;;5033976;28;20057;-75
2022/02/13 09:56:14;;;;;;;4.63;2.53;;;14.20;55.90;;;;;;5034623;28;20106;-74
2022/02/13 09:58:40;;;;;;;5.80;2.75;;;14.20;55.90;;;;;;5034051;28;20441;-74
2022/02/13 10:01:08;;;;;;;4.57;2.65;;;14.20;55.90;;;;;;5034199;28;20079;-74
2022/02/13 10:03:42;;;;;;;3.78;2.35;;;14.20;56.00;;;;;;5012096;28;20395;-74
2022/02/13 10:06:14;;;;;;;4.68;2.47;;;14.10;55.90;;;;;;5014494;28;20304;-74
2022/02/13 10:08:45;;;;;;;4.05;2.40;;;14.10;55.90;;;;;;5031264;28;20049;-74
2022/02/13 10:11:24;;;;;;;5.40;2.40;;;14.10;56.00;;;;;;5033884;28;20114;-74
2022/02/13 10:13:53;;;;;;;4.03;2.40;;;14.10;56.00;;;;;;5024092;28;20114;-74
2022/02/13 10:16:30;;;;;;;4.53;2.15;;;14.10;56.20;;;;;;5014226;28;20111;-75
2022/02/13 10:19:00;;;;;;;3.53;1.88;;;14.00;56.20;;;;;;5014558;28;20038;-73
2022/02/13 10:21:40;;;;;;;3.97;2.22;;;14.00;56.00;;;;;;5014090;28;20121;-75
2022/02/13 10:24:20;;;;;;;3.53;1.92;;;14.00;55.60;;;;;;4997628;28;20049;-74
2022/02/13 10:27:10;;;;;;;5.05;2.47;;;14.00;55.30;;;;;;5029865;28;20029;-74
2022/02/13 10:29:41;;;;;;;4.93;2.08;;;14.10;55.00;;;;;;5087360;28;20053;-75
2022/02/13 10:32:10;;;;;;;3.60;1.90;;;14.10;55.20;;;;;;5032953;28;20041;-73
2022/02/13 10:34:36;;;;;;;5.32;2.20;;;14.00;55.10;;;;;;5033815;28;20038;-73
2022/02/13 10:37:02;;;;;;;3.80;2.00;;;14.00;55.30;;;;;;5033705;28;20333;-74
2022/02/13 10:39:28;;;;;;;5.32;2.10;;;14.00;55.40;;;;;;5033205;28;20072;-73
2022/02/13 10:41:55;;;;;;;4.88;1.75;;;14.00;55.40;;;;;;5012792;28;20041;-75
2022/02/13 10:44:28;;;;;;;4.00;2.28;;;14.00;55.50;;;;;;5027828;28;20080;-76
2022/02/13 10:46:55;;;;;;;6.22;2.60;;;14.00;55.70;;;;;;5032654;28;20406;-75
2022/02/13 10:49:22;;;;;;;6.68;2.67;;;14.00;55.70;;;;;;5033463;28;20046;-83
2022/02/13 10:51:48;;;;;;;11.60;3.08;;;14.00;55.80;;;;;;5015850;28;20057;-73
2022/02/13 10:54:14;;;;;;;5.60;3.08;;;14.00;56.10;;;;;;5033313;28;20057;-75
2022/02/13 10:56:40;;;;;;;7.15;2.45;;;14.00;56.30;;;;;;5033644;28;20460;-72
2022/02/13 10:59:11;;;;;;;6.75;2.33;;;14.00;56.30;;;;;;5028063;28;20038;-72
2022/02/13 11:01:37;;;;;;;9.25;2.97;;;14.00;57.20;;;;;;5032906;28;20546;-73
2022/02/13 11:04:03;;;;;;;4.68;2.10;;;13.90;56.50;;;;;;5033278;28;20128;-73
2022/02/13 11:06:31;;;;;;;4.72;2.50;;;13.70;56.10;;;;;;5033016;28;20048;-73
2022/02/13 11:09:12;;;;;;;10.65;2.88;;;13.60;56.50;;;;;;5027015;28;20110;-73
2022/02/13 11:11:39;;;;;;;7.40;2.72;;;13.60;57.20;;;;;;5032841;28;20130;-73
2022/02/13 11:14:05;;;;;;;9.30;2.28;;;13.60;57.50;;;;;;5032970;28;20045;-73
2022/02/13 11:16:36;;;;;;;6.10;2.40;;;13.70;57.80;;;;;;5032899;28;20042;-73
2022/02/13 11:19:09;;;;;;;4.78;2.10;;;13.70;58.10;;;;;;5015709;28;20050;-71
2022/02/13 11:21:35;;;;;;;12.33;2.80;;;13.70;57.60;;;;;;5016108;28;20046;-73
2022/02/13 11:24:02;;;;;;;9.52;2.83;;;13.70;57.90;;;;;;5032930;28;20037;-72
2022/02/13 11:26:36;;;;;;;7.50;3.33;;;13.70;57.60;;;;;;5033213;28;20095;-71
2022/02/13 11:29:03;;;;;;;5.47;2.67;;;13.70;57.00;;;;;;5026243;28;20041;-74
2022/02/13 11:31:40;;;;;;;5.25;2.80;;;13.80;56.60;;;;;;5030826;28;20045;-72
2022/02/13 11:34:35;;;;;;;5.00;3.00;;;13.80;57.50;;;;;;5032574;28;20102;-73
2022/02/13 11:37:15;;;;;;;5.53;2.42;;;13.80;60.00;;;;;;5032859;28;20049;-74
2022/02/13 11:39:43;;;;;;;9.68;3.05;;;13.80;62.90;;;;;;5032565;28;20053;-73
2022/02/13 11:42:19;;;;;;;6.85;3.33;;;13.90;61.70;;;;;;5032997;28;20365;-75
2022/02/13 11:44:52;;;;;;;7.22;3.10;;;13.90;62.90;;;;;;5014800;28;20049;-78
2022/02/13 11:47:38;;;;;;;7.32;2.75;;;13.90;62.60;;;;;;5032445;28;20041;-72
2022/02/13 11:50:07;;;;;;;5.78;3.72;;;14.00;63.80;;;;;;5032319;28;20464;-73
2022/02/13 11:52:38;;;;;;;13.25;3.38;;;14.00;60.90;;;;;;5032748;28;20092;-72
2022/02/13 11:55:16;;;;;;;6.95;3.90;;;14.00;58.70;;;;;;5032000;28;20323;-71
2022/02/13 11:58:01;;;;;;;7.28;5.00;;;14.00;57.10;;;;;;5015019;28;20053;-71
2022/02/13 12:00:46;;;;;;;7.65;5.93;;;14.00;55.90;;;;;;5015127;28;20053;-73
2022/02/13 12:03:20;;;;;;;8.95;5.28;;;13.90;54.70;;;;;;5032150;28;20055;-73
2022/02/13 12:06:10;;;;;;;8.07;5.57;;;13.90;53.70;;;;;;5014570;28;20134;-74
2022/02/13 12:08:36;;;;;;;10.23;6.07;;;13.80;53.10;;;;;;5002823;28;20065;-72
2022/02/13 12:11:07;;;;;;;7.28;4.90;;;13.80;53.10;;;;;;5018772;28;20048;-70
2022/02/13 12:13:36;;;;;;;7.15;4.88;;;13.70;52.60;;;;;;5031532;28;20044;-72
2022/02/13 12:16:04;;;;;;;7.40;5.63;;;13.80;52.50;;;;;;4998490;28;20049;-70
2022/02/13 12:18:29;;;;;;;12.40;6.35;;;13.70;52.80;;;;;;5032404;28;20124;-72
2022/02/13 12:21:00;;;;;;;11.30;7.53;;;13.70;52.30;;;;;;5032275;28;20411;-75
2022/02/13 12:23:29;;;;;;;8.30;5.38;;;13.80;51.90;;;;;;5025625;28;20037;-74
2022/02/13 12:25:56;;;;;;;8.00;4.85;;;13.80;51.90;;;;;;5012812;28;20057;-72
2022/02/13 12:28:31;;;;;;;8.52;4.72;;;13.80;51.90;;;;;;5015088;28;20045;-71
2022/02/13 12:30:58;;;;;;;7.72;4.35;;;13.80;51.30;;;;;;5012523;28;20393;-68
2022/02/13 12:33:27;;;;;;;7.75;4.15;;;13.80;51.50;;;;;;5080341;28;20129;-72
2022/02/13 12:35:58;;;;;;;9.23;4.07;;;13.80;51.40;;;;;;5012735;28;20042;-73
2022/02/13 12:38:28;;;;;;;6.47;3.50;;;13.80;57.70;;;;;;5027935;28;20038;-72
2022/02/13 12:40:56;;;;;;;5.88;3.50;;;13.60;57.40;;;;;;5010240;28;20045;-74
2022/02/13 12:43:24;;;;;;;5.22;3.15;;;13.50;57.50;;;;;;5031773;28;20132;-72
2022/02/13 12:45:52;;;;;;;7.80;3.50;;;13.60;56.70;;;;;;5031642;28;20049;-73